createdAt,value
2023-04-15T00:02:17.704Z,99344.95
2023-04-15T00:04:45.883Z,99342.26
2023-04-15T00:07:14.138Z,99341.25
2023-04-15T00:09:41.737Z,99334.75
2023-04-15T00:12:08.683Z,99330.48
2023-04-15T00:14:38.085Z,99330.44
2023-04-15T00:17:04.822Z,99323.63
2023-04-15T00:19:32.775Z,99321.23
2023-04-15T00:22:05.636Z,99327.96
2023-04-15T00:24:33.468Z,99338.92
2023-04-15T00:27:00.261Z,99332.81
2023-04-15T00:29:29.176Z,99337.38
2023-04-15T00:31:59.062Z,99334.20
2023-04-15T00:34:27.219Z,99342.35
2023-04-15T00:36:55.087Z,99341.79
2023-04-15T00:39:22.231Z,99337.70
2023-04-15T00:41:48.789Z,99334.39
2023-04-15T00:44:18.441Z,99330.52
2023-04-15T00:46:45.603Z,99323.86
2023-04-15T00:49:12.686Z,99321.03
2023-04-15T00:51:40.989Z,99326.98
2023-04-15T00:54:07.791Z,99332.14
2023-04-15T00:56:38.076Z,99329.81
2023-04-15T00:59:08.810Z,99332.73
2023-04-15T01:01:35.980Z,99336.36
2023-04-15T01:04:03.466Z,99335.61
2023-04-15T01:06:31.876Z,99333.20
2023-04-15T01:08:59.136Z,99332.56
2023-04-15T01:11:26.569Z,99332.77
2023-04-15T01:13:55.140Z,99329.83
2023-04-15T01:16:22.078Z,99333.35
2023-04-15T01:18:49.256Z,99340.66
2023-04-15T01:21:16.391Z,99344.00
2023-04-15T01:23:43.245Z,99340.27
2023-04-15T01:26:14.312Z,99337.89
2023-04-15T01:28:41.276Z,99335.84
2023-04-15T01:31:09.288Z,99337.33
2023-04-15T01:33:41.856Z,99346.52
2023-04-15T01:36:09.440Z,99351.66
2023-04-15T01:38:37.251Z,99354.13
2023-04-15T01:41:04.378Z,99355.55
2023-04-15T01:43:31.061Z,99367.00
2023-04-15T01:45:57.858Z,99365.73
2023-04-15T01:48:25.606Z,99362.83
2023-04-15T01:50:57.559Z,99364.33
2023-04-15T01:53:25.292Z,99365.19
2023-04-15T01:55:52.062Z,99369.73
2023-04-15T01:58:18.974Z,99370.63
2023-04-15T02:00:46.674Z,99368.70
2023-04-15T02:03:13.487Z,99367.70
2023-04-15T02:05:40.254Z,99372.61
2023-04-15T02:08:11.895Z,99375.83
2023-04-15T02:10:39.775Z,99376.42
2023-04-15T02:13:07.290Z,99383.66
2023-04-15T02:15:33.924Z,99383.67
2023-04-15T02:18:09.874Z,99389.73
2023-04-15T02:20:37.564Z,99388.95
2023-04-15T02:23:06.757Z,99386.90
2023-04-15T02:25:34.458Z,99390.88
2023-04-15T02:28:01.252Z,99390.08
2023-04-15T02:30:28.029Z,99389.77
2023-04-15T02:32:55.542Z,99383.95
2023-04-15T02:35:26.634Z,99384.08
2023-04-15T02:37:53.384Z,99386.63
2023-04-15T02:40:20.053Z,99390.48
2023-04-15T02:42:47.129Z,99393.38
2023-04-15T02:45:15.789Z,99402.87
2023-04-15T02:47:45.514Z,99405.18
2023-04-15T02:50:14.600Z,99412.75
2023-04-15T02:52:42.214Z,99407.23
2023-04-15T02:55:11.051Z,99410.75
2023-04-15T02:57:40.603Z,99408.61
2023-04-15T03:00:10.993Z,99414.11
2023-04-15T03:02:42.488Z,99419.79
2023-04-15T03:05:13.191Z,99418.40
2023-04-15T03:07:44.019Z,99415.35
2023-04-15T03:10:11.151Z,99408.17
2023-04-15T03:12:37.947Z,99414.20
2023-04-15T03:15:09.237Z,99407.98
2023-04-15T03:17:41.164Z,99401.34
2023-04-15T03:20:08.474Z,99405.16
2023-04-15T03:22:38.842Z,99408.13
2023-04-15T03:25:07.157Z,99407.05
2023-04-15T03:27:34.199Z,99407.83
2023-04-15T03:30:08.466Z,99408.52
2023-04-15T03:32:38.050Z,99407.93
2023-04-15T03:35:06.325Z,99409.02
2023-04-15T03:37:35.245Z,99408.39
2023-04-15T03:40:02.146Z,99404.59
2023-04-15T03:42:29.147Z,99402.48
2023-04-15T03:44:56.214Z,99402.88
2023-04-15T03:47:22.976Z,99405.81
2023-04-15T03:49:49.537Z,99413.58
2023-04-15T03:52:18.375Z,99413.17
2023-04-15T03:54:45.448Z,99410.79
2023-04-15T03:57:13.015Z,99413.81
2023-04-15T03:59:39.808Z,99404.65
2023-04-15T04:02:06.776Z,99406.20
2023-04-15T04:04:33.615Z,99405.63
2023-04-15T04:07:00.923Z,99403.01
2023-04-15T04:09:28.241Z,99405.72
2023-04-15T04:11:55.783Z,99408.26
2023-04-15T04:14:28.703Z,99413.71
2023-04-15T04:16:56.857Z,99416.83
2023-04-15T04:19:23.497Z,99424.85
2023-04-15T04:21:50.893Z,99426.33
2023-04-15T04:24:17.943Z,99423.67
2023-04-15T04:26:44.552Z,99416.65
2023-04-15T04:29:20.370Z,99422.75
2023-04-15T04:31:49.483Z,99424.08
2023-04-15T04:34:16.201Z,99428.75
2023-04-15T04:36:42.874Z,99425.55
2023-04-15T04:39:11.151Z,99430.02
2023-04-15T04:41:37.998Z,99426.16
2023-04-15T04:44:04.820Z,99426.91
2023-04-15T04:46:32.458Z,99427.02
2023-04-15T04:48:59.694Z,99426.22
2023-04-15T04:51:27.534Z,99428.48
2023-04-15T04:53:56.086Z,99428.83
2023-04-15T04:56:23.119Z,99424.89
2023-04-15T04:58:49.798Z,99427.98
2023-04-15T05:01:16.738Z,99429.20
2023-04-15T05:03:43.722Z,99427.91
2023-04-15T05:06:10.816Z,99426.27
2023-04-15T05:08:39.914Z,99426.58
2023-04-15T05:11:07.311Z,99425.63
2023-04-15T05:13:34.287Z,99429.25
2023-04-15T05:16:00.941Z,99435.47
2023-04-15T05:18:30.396Z,99433.11
2023-04-15T05:20:58.716Z,99431.73
2023-04-15T05:23:25.478Z,99431.70
2023-04-15T05:25:55.026Z,99438.73
2023-04-15T05:28:25.081Z,99439.79
2023-04-15T05:30:51.727Z,99443.39
2023-04-15T05:33:19.295Z,99446.44
2023-04-15T05:35:46.428Z,99447.20
2023-04-15T05:38:13.014Z,99447.02
2023-04-15T05:40:40.070Z,99449.28
2023-04-15T05:43:06.736Z,99447.33
2023-04-15T05:45:33.746Z,99449.11
2023-04-15T05:48:00.951Z,99453.02
2023-04-15T05:50:27.859Z,99458.29
2023-04-15T05:52:56.293Z,99461.02
2023-04-15T05:55:23.156Z,99464.87
2023-04-15T05:57:50.699Z,99460.95
2023-04-15T06:00:18.138Z,99460.53
2023-04-15T06:02:46.457Z,99461.02
2023-04-15T06:05:13.886Z,99460.20
2023-04-15T06:07:40.595Z,99458.30
2023-04-15T06:10:07.704Z,99457.95
2023-04-15T06:12:39.845Z,99465.15
2023-04-15T06:15:09.707Z,99462.15
2023-04-15T06:17:36.775Z,99470.73
2023-04-15T06:20:12.978Z,99466.66
2023-04-15T06:22:40.151Z,99465.48
2023-04-15T06:25:08.733Z,99466.02
2023-04-15T06:27:35.652Z,99467.79
2023-04-15T06:30:02.460Z,99469.81
2023-04-15T06:32:32.517Z,99464.70
2023-04-15T06:34:59.367Z,99467.67
2023-04-15T06:37:26.065Z,99469.03
2023-04-15T06:39:52.929Z,99475.84
2023-04-15T06:42:19.629Z,99475.23
2023-04-15T06:44:47.618Z,99480.42
2023-04-15T06:47:14.829Z,99484.23
2023-04-15T06:49:42.649Z,99478.84
2023-04-15T06:52:10.392Z,99483.11
2023-04-15T06:54:37.557Z,99488.41
2023-04-15T06:57:04.376Z,99487.06
2023-04-15T06:59:31.194Z,99484.25
2023-04-15T07:01:59.276Z,99486.41
2023-04-15T07:04:26.004Z,99483.02
2023-04-15T07:06:53.892Z,99481.01
2023-04-15T07:09:22.759Z,99489.10
2023-04-15T07:11:49.819Z,99492.00
2023-04-15T07:14:16.602Z,99491.23
2023-04-15T07:16:47.691Z,99491.80
2023-04-15T07:19:14.294Z,99487.59
2023-04-15T07:21:42.670Z,99488.36
2023-04-15T07:24:09.932Z,99484.39
2023-04-15T07:26:39.871Z,99483.61
2023-04-15T07:29:06.571Z,99483.57
2023-04-15T07:31:33.524Z,99492.23
2023-04-15T07:34:04.606Z,99494.04
2023-04-15T07:36:32.454Z,99492.27
2023-04-15T07:39:01.584Z,99491.33
2023-04-15T07:41:31.302Z,99493.19
2023-04-15T07:43:58.297Z,99504.09
2023-04-15T07:46:26.713Z,99509.86
2023-04-15T07:48:55.897Z,99506.97
2023-04-15T07:51:23.035Z,99514.34
2023-04-15T07:53:53.546Z,99504.27
2023-04-15T07:56:20.313Z,99509.48
2023-04-15T07:58:49.761Z,99505.11
2023-04-15T08:01:18.342Z,99508.03
2023-04-15T08:03:45.182Z,99497.11
2023-04-15T08:06:12.428Z,99505.23
2023-04-15T08:08:39.321Z,99497.94
2023-04-15T08:11:06.405Z,99498.34
2023-04-15T08:13:34.405Z,99500.34
2023-04-15T08:16:32.522Z,99512.43
2023-04-15T08:19:00.665Z,99512.82
2023-04-15T08:21:28.041Z,99515.33
2023-04-15T08:23:54.764Z,99511.54
2023-04-15T08:26:23.833Z,99513.58
2023-04-15T08:28:55.111Z,99521.88
2023-04-15T08:31:21.994Z,99514.83
2023-04-15T08:33:48.765Z,99515.93
2023-04-15T08:36:18.410Z,99508.19
2023-04-15T08:38:45.876Z,99513.20
2023-04-15T08:41:23.179Z,99520.05
2023-04-15T08:44:00.676Z,99508.86
2023-04-15T08:46:35.333Z,99503.14
2023-04-15T08:49:04.064Z,99503.66
2023-04-15T08:51:36.173Z,99503.42
2023-04-15T08:54:03.468Z,99501.55
2023-04-15T08:56:35.106Z,99505.40
2023-04-15T08:59:02.056Z,99510.12
2023-04-15T09:01:29.233Z,99525.28
2023-04-15T09:03:56.587Z,99513.71
2023-04-15T09:06:24.156Z,99521.29
2023-04-15T09:08:52.400Z,99517.38
2023-04-15T09:11:20.089Z,99516.98
2023-04-15T09:13:47.147Z,99518.13
2023-04-15T09:16:13.877Z,99520.45
2023-04-15T09:18:41.144Z,99512.13
2023-04-15T09:21:12.693Z,99507.06
2023-04-15T09:23:54.982Z,99515.27
2023-04-15T09:26:39.801Z,99522.14
2023-04-15T09:29:07.524Z,99517.90
2023-04-15T09:31:36.283Z,99516.50
2023-04-15T09:34:03.477Z,99521.57
2023-04-15T09:36:45.781Z,99527.26
2023-04-15T09:39:12.413Z,99527.29
2023-04-15T09:41:40.975Z,99524.23
2023-04-15T09:44:07.614Z,99532.73
2023-04-15T09:46:42.614Z,99529.17
2023-04-15T09:49:10.527Z,99532.88
2023-04-15T09:51:37.778Z,99527.67
2023-04-15T09:54:04.599Z,99527.33
2023-04-15T09:56:34.512Z,99526.27
2023-04-15T09:59:01.292Z,99533.27
2023-04-15T10:01:28.580Z,99531.65
2023-04-15T10:03:55.329Z,99540.54
2023-04-15T10:06:26.157Z,99532.12
2023-04-15T10:08:53.784Z,99541.42
2023-04-15T10:11:22.782Z,99534.84
2023-04-15T10:13:50.558Z,99534.05
2023-04-15T10:16:21.197Z,99538.67
2023-04-15T10:18:53.435Z,99537.23
2023-04-15T10:21:20.133Z,99533.33
2023-04-15T10:23:47.181Z,99539.40
2023-04-15T10:26:14.340Z,99537.46
2023-04-15T10:28:41.539Z,99536.21
2023-04-15T10:31:08.884Z,99548.34
2023-04-15T10:33:36.144Z,99549.21
2023-04-15T10:36:03.011Z,99543.27
2023-04-15T10:38:41.992Z,99544.02
2023-04-15T10:41:20.792Z,99546.50
2023-04-15T10:43:49.642Z,99551.23
2023-04-15T10:46:20.228Z,99549.23
2023-04-15T10:48:51.957Z,99548.04
2023-04-15T10:51:29.876Z,99546.77
2023-04-15T10:54:00.380Z,99549.27
2023-04-15T10:56:31.103Z,99562.00
2023-04-15T10:59:01.537Z,99548.83
2023-04-15T11:01:54.359Z,99553.23
2023-04-15T11:04:59.072Z,99555.07
2023-04-15T11:07:48.182Z,99546.86
2023-04-15T11:10:20.898Z,99542.20
2023-04-15T11:12:50.657Z,99552.30
2023-04-15T11:15:44.348Z,99548.22
2023-04-15T11:18:15.757Z,99552.04
2023-04-15T11:21:06.865Z,99554.35
2023-04-15T11:23:37.995Z,99558.02
2023-04-15T11:26:09.770Z,99546.06
2023-04-15T11:28:38.886Z,99543.00
2023-04-15T11:31:08.260Z,99557.37
2023-04-15T11:33:36.334Z,99554.12
2023-04-15T11:36:03.780Z,99551.71
2023-04-15T11:38:33.545Z,99551.52
2023-04-15T11:41:00.365Z,99560.02
2023-04-15T11:43:27.033Z,99546.08
2023-04-15T11:53:06.919Z,99537.38
2023-04-15T11:56:04.733Z,99542.61
2023-04-15T11:58:34.154Z,99541.13
2023-04-15T12:01:00.799Z,99541.89
2023-04-15T12:03:31.353Z,99540.99
2023-04-15T17:29:03.918Z,99650.15
2023-04-15T17:31:31.252Z,99662.73
2023-04-15T17:34:06.934Z,99665.14
2023-04-15T17:36:35.041Z,99661.05
2023-04-15T17:39:01.765Z,99664.85
2023-04-15T17:41:28.552Z,99675.35
2023-04-15T17:43:57.405Z,99680.96
2023-04-15T17:46:24.373Z,99686.61
2023-04-15T17:48:51.007Z,99688.42
2023-04-15T17:51:18.339Z,99691.87
2023-04-15T17:53:44.976Z,99681.64
2023-04-15T17:56:11.610Z,99677.57
2023-04-15T17:58:38.720Z,99674.85
2023-04-15T18:01:05.694Z,99673.17
2023-04-15T18:03:32.724Z,99670.09
2023-04-15T18:06:00.751Z,99672.71
2023-04-15T18:08:28.893Z,99666.67
2023-04-15T18:10:55.819Z,99657.55
2023-04-15T18:13:22.512Z,99658.29
2023-04-15T18:15:50.660Z,99652.48
2023-04-15T18:18:17.343Z,99653.44
2023-04-15T18:20:44.237Z,99654.03
2023-04-15T18:23:11.005Z,99656.70
2023-04-15T18:25:39.014Z,99651.71
2023-04-15T18:28:05.850Z,99647.83
2023-04-15T18:30:32.517Z,99651.29
2023-04-15T18:33:00.280Z,99644.89
2023-04-15T18:35:29.492Z,99644.95
2023-04-15T18:37:57.849Z,99643.13
2023-04-15T18:40:24.462Z,99637.20
2023-04-15T18:42:52.077Z,99632.83
2023-04-15T18:45:19.745Z,99634.41
2023-04-15T18:47:46.356Z,99632.91
2023-04-15T18:50:13.109Z,99630.92
2023-04-15T18:52:39.823Z,99629.96
2023-04-15T18:55:06.907Z,99625.85
2023-04-15T18:57:34.999Z,99628.79
2023-04-15T19:00:02.189Z,99640.67
2023-04-15T19:02:29.178Z,99645.41
2023-04-15T19:04:56.198Z,99656.36
2023-04-15T19:07:23.426Z,99665.84
2023-04-15T19:09:50.734Z,99664.63
2023-04-15T19:12:17.313Z,99660.02
2023-04-15T19:14:44.152Z,99667.27
2023-04-15T19:17:10.798Z,99669.16
2023-04-15T19:19:38.089Z,99666.61
2023-04-15T19:22:05.222Z,99671.19
2023-04-15T19:24:33.150Z,99666.98
2023-04-15T19:27:01.073Z,99661.38
2023-04-15T19:29:30.473Z,99660.70
2023-04-15T19:31:57.066Z,99660.98
2023-04-15T19:34:24.484Z,99658.74
2023-04-15T19:36:51.111Z,99651.67
2023-04-15T19:39:17.894Z,99656.61
2023-04-15T19:41:45.497Z,99654.60
2023-04-15T19:44:13.083Z,99662.92
2023-04-15T19:46:40.526Z,99663.55
2023-04-15T19:49:07.568Z,99673.17
2023-04-15T19:51:36.695Z,99671.27
2023-04-15T19:54:03.444Z,99669.88
2023-04-15T19:56:31.686Z,99673.38
2023-04-15T19:58:59.840Z,99679.09
2023-04-15T20:01:26.518Z,99683.05
2023-04-15T20:03:53.947Z,99676.95
2023-04-15T20:06:21.066Z,99677.27
2023-04-15T20:08:48.332Z,99675.86
2023-04-15T20:11:15.343Z,99676.27
2023-04-15T20:13:42.181Z,99675.68
2023-04-15T20:16:09.015Z,99674.74
2023-04-15T20:18:35.751Z,99673.55
2023-04-15T20:21:02.404Z,99673.20
2023-04-15T20:23:29.162Z,99674.59
2023-04-15T20:25:56.406Z,99672.35
2023-04-15T20:28:25.518Z,99673.95
2023-04-15T20:30:53.182Z,99677.10
2023-04-15T20:33:21.577Z,99680.58
2023-04-15T20:35:49.996Z,99681.54
2023-04-15T20:38:17.473Z,99679.47
2023-04-15T20:40:44.106Z,99680.53
2023-04-15T20:43:10.705Z,99678.54
2023-04-15T20:45:38.027Z,99679.79
2023-04-15T20:48:05.161Z,99681.20
2023-04-15T20:50:31.966Z,99679.10
2023-04-15T20:52:58.565Z,99679.58
2023-04-15T20:55:25.166Z,99677.67
2023-04-15T20:57:51.792Z,99673.84
2023-04-15T21:00:18.422Z,99677.98
2023-04-15T21:02:45.476Z,99671.92
2023-04-15T21:05:12.290Z,99670.85
2023-04-15T21:07:40.387Z,99671.52
2023-04-15T21:10:07.242Z,99672.08
2023-04-15T21:12:34.042Z,99675.35
2023-04-15T21:15:01.082Z,99676.25
2023-04-15T21:17:27.858Z,99678.43
2023-04-15T21:19:54.474Z,99680.02
2023-04-15T21:22:21.112Z,99682.56
2023-04-15T21:24:48.092Z,99686.95
2023-04-15T21:27:15.187Z,99688.48
2023-04-15T21:29:42.414Z,99690.04
2023-04-15T21:32:09.196Z,99688.35
2023-04-15T21:34:35.925Z,99691.10
2023-04-15T21:37:02.594Z,99690.11
2023-04-15T21:39:29.242Z,99690.90
2023-04-15T21:41:57.228Z,99694.20
2023-04-15T21:44:23.875Z,99694.90
2023-04-15T21:46:51.031Z,99699.98
2023-04-15T21:49:19.644Z,99697.23
2023-04-15T21:51:47.364Z,99695.30
2023-04-15T21:54:14.152Z,99693.81
2023-04-15T21:56:41.804Z,99698.04
2023-04-15T21:59:08.492Z,99698.11
2023-04-15T22:01:35.538Z,99699.05
2023-04-15T22:04:02.305Z,99705.44
2023-04-15T22:06:29.197Z,99706.70
2023-04-15T22:08:57.736Z,99707.84
2023-04-15T22:11:29.636Z,99708.17
2023-04-15T22:13:57.000Z,99708.96
2023-04-15T22:16:24.798Z,99708.38
2023-04-15T22:18:51.631Z,99708.45
2023-04-15T22:21:18.867Z,99709.20
2023-04-15T22:23:46.739Z,99710.21
2023-04-15T22:26:13.473Z,99711.50
2023-04-15T22:28:40.466Z,99710.73
2023-04-15T22:31:07.196Z,99711.11
2023-04-15T22:33:34.839Z,99706.42
2023-04-15T22:36:02.192Z,99713.14
2023-04-15T22:38:28.922Z,99712.14
2023-04-15T22:40:55.650Z,99709.71
2023-04-15T22:43:22.278Z,99709.50
2023-04-15T22:45:54.126Z,99712.55
2023-04-15T22:48:20.694Z,99709.99
2023-04-15T22:50:47.505Z,99710.09
2023-04-15T22:53:14.989Z,99710.73
2023-04-15T22:55:48.416Z,99708.86
2023-04-15T22:58:17.707Z,99715.02
2023-04-15T23:00:44.795Z,99716.66
2023-04-15T23:03:11.592Z,99719.71
2023-04-15T23:05:40.388Z,99723.86
2023-04-15T23:08:07.434Z,99724.27
2023-04-15T23:10:34.134Z,99726.55
2023-04-15T23:13:00.789Z,99725.79
2023-04-15T23:15:27.464Z,99725.82
2023-04-15T23:17:54.244Z,99725.42
2023-04-15T23:20:20.888Z,99731.39
2023-04-15T23:22:47.530Z,99731.30
2023-04-15T23:25:14.211Z,99723.92
2023-04-15T23:27:40.930Z,99724.64
2023-04-15T23:30:07.873Z,99730.90
2023-04-15T23:32:34.878Z,99731.00
2023-04-15T23:35:01.548Z,99734.73
2023-04-15T23:37:29.417Z,99731.86
2023-04-15T23:39:56.102Z,99733.73
2023-04-15T23:42:23.548Z,99735.64
2023-04-15T23:44:50.501Z,99732.97
2023-04-15T23:47:17.156Z,99735.44
2023-04-15T23:49:43.741Z,99736.70
2023-04-15T23:52:10.434Z,99735.34
2023-04-15T23:54:37.238Z,99734.56
2023-04-15T23:57:04.292Z,99734.63
2023-04-15T23:59:31.459Z,99739.17
